Terminal Aerodrome Forecast
Issued by NWS Miami, FL

Home | Current Version | Previous Version | Text Only | Print | Product List | Glossary On
Versions: 1 2 3 4 5 6 7 8 9 10 11 12 13 14 15 16 17 18 19 20 21 22 23 24 25 26 27 28
000
FTUS42 KMFL 290520
TAFPBI
TAF
KPBI 290520Z 2906/3006 11010KT P6SM VCTS SCT030CB SCT050 SCT250
     FM291200 11010KT P6SM VCTS SCT030CB BKN050 BKN250
     FM300000 13010KT P6SM SHRA VCTS BKN025CB BKN050 OVC100=

USA.gov is the U.S. government's official web portal to all federal, state and local government web resources and services.